createdAt,value
2019-02-16T00:00:38.944Z,13.97
2019-02-16T00:02:43.593Z,12.77
2019-02-16T00:04:48.148Z,12.67
2019-02-16T00:06:55.658Z,12.90
2019-02-16T00:09:12.227Z,13.63
2019-02-16T00:11:17.005Z,13.00
2019-02-16T00:13:23.118Z,13.53
2019-02-16T00:15:30.805Z,12.53
2019-02-16T00:17:35.372Z,12.83
2019-02-16T00:19:43.300Z,13.13
2019-02-16T00:21:57.790Z,12.83
2019-02-16T00:24:04.908Z,13.07
2019-02-16T00:26:09.793Z,13.57
2019-02-16T00:28:15.639Z,13.03
2019-02-16T00:30:24.673Z,13.03
2019-02-16T00:32:29.715Z,12.77
2019-02-16T00:34:34.272Z,12.43
2019-02-16T00:36:38.813Z,12.53
2019-02-16T00:38:43.733Z,11.43
2019-02-16T00:40:51.407Z,12.00
2019-02-16T00:42:58.820Z,12.83
2019-02-16T00:45:03.837Z,11.77
2019-02-16T00:47:10.332Z,11.57
2019-02-16T00:49:16.303Z,12.27
2019-02-16T00:51:23.927Z,12.43
2019-02-16T00:53:28.470Z,12.57
2019-02-16T00:55:34.261Z,12.27
2019-02-16T00:57:44.187Z,11.60
2019-02-16T00:59:48.793Z,12.10
2019-02-16T01:01:53.426Z,11.77
2019-02-16T01:03:58.043Z,12.13
2019-02-16T01:06:02.643Z,11.33
2019-02-16T01:08:07.217Z,12.10
2019-02-16T01:10:13.350Z,11.20
2019-02-16T01:12:17.916Z,10.80
2019-02-16T01:14:22.486Z,11.57
2019-02-16T01:16:27.468Z,10.90
2019-02-16T01:18:32.036Z,11.43
2019-02-16T01:20:53.634Z,13.20
2019-02-16T01:23:06.762Z,11.67
2019-02-16T01:25:13.694Z,12.57
2019-02-16T01:27:19.649Z,11.73
2019-02-16T01:29:33.547Z,12.20
2019-02-16T01:31:38.336Z,12.13
2019-02-16T01:33:47.584Z,11.77
2019-02-16T01:35:56.924Z,11.50
2019-02-16T01:38:02.720Z,11.93
2019-02-16T01:40:17.238Z,11.23
2019-02-16T01:42:26.041Z,11.13
2019-02-16T01:44:32.988Z,11.60
2019-02-16T01:46:44.187Z,12.03
2019-02-16T01:49:02.083Z,11.10
2019-02-16T01:51:13.915Z,11.60
2019-02-16T01:53:31.797Z,11.23
2019-02-16T01:55:41.836Z,10.47
2019-02-16T01:57:54.387Z,10.93
2019-02-16T02:00:00.811Z,11.07
2019-02-16T02:02:18.246Z,11.43
2019-02-16T02:04:27.237Z,11.20
2019-02-16T02:06:48.071Z,11.50
2019-02-16T02:08:58.841Z,11.57
2019-02-16T02:11:12.258Z,10.77
2019-02-16T02:13:20.808Z,11.50
2019-02-16T02:15:38.049Z,11.40
2019-02-16T02:17:53.309Z,10.80
2019-02-16T02:19:56.241Z,11.37
2019-02-16T02:22:29.051Z,10.70
2019-02-16T02:24:38.923Z,11.67
2019-02-16T02:26:53.289Z,10.50
2019-02-16T02:29:11.907Z,11.23
2019-02-16T02:31:23.793Z,11.17
2019-02-16T02:33:41.649Z,10.90
2019-02-16T02:35:48.796Z,10.33
2019-02-16T02:38:04.199Z,11.53
2019-02-16T02:40:17.838Z,11.23
2019-02-16T02:42:26.990Z,11.27
2019-02-16T02:44:37.201Z,11.20
2019-02-16T02:46:59.737Z,10.57
2019-02-16T02:49:10.814Z,11.57
2019-02-16T02:51:28.017Z,11.20
2019-02-16T02:53:39.643Z,11.40
2019-02-16T02:55:45.057Z,11.63
2019-02-16T02:58:00.017Z,11.77
2019-02-16T03:00:14.356Z,11.83
2019-02-16T03:02:30.800Z,11.30
2019-02-16T03:04:39.717Z,11.70
2019-02-16T03:06:48.558Z,11.07
2019-02-16T03:08:53.115Z,11.73
2019-02-16T03:10:58.394Z,12.13
2019-02-16T03:13:02.911Z,12.33
2019-02-16T03:15:08.040Z,11.57
2019-02-16T03:17:12.933Z,11.63
2019-02-16T03:19:17.518Z,11.43
2019-02-16T03:21:22.077Z,12.03
2019-02-16T03:23:26.962Z,11.30
2019-02-16T03:25:31.523Z,12.17
2019-02-16T03:27:54.732Z,12.00
2019-02-16T03:30:36.066Z,11.70
2019-02-16T03:33:21.771Z,11.33
2019-02-16T03:35:54.143Z,11.67
2019-02-16T03:38:31.856Z,12.20
2019-02-16T03:40:36.436Z,12.13
2019-02-16T03:42:41.294Z,11.33
2019-02-16T03:44:45.896Z,11.57
2019-02-16T03:46:50.469Z,12.57
2019-02-16T03:48:55.581Z,12.23
2019-02-16T03:51:00.214Z,11.93
2019-02-16T03:53:06.094Z,12.07
2019-02-16T03:55:10.961Z,12.90
2019-02-16T03:57:15.613Z,11.50
2019-02-16T03:59:20.218Z,12.23
2019-02-16T04:01:25.146Z,11.50
2019-02-16T04:03:29.745Z,11.97
2019-02-16T04:05:34.376Z,12.23
2019-02-16T04:07:39.342Z,11.80
2019-02-16T04:09:43.912Z,11.23
2019-02-16T04:11:48.672Z,12.53
2019-02-16T04:13:53.205Z,11.63
2019-02-16T04:15:57.786Z,11.70
2019-02-16T04:18:03.480Z,11.70
2019-02-16T04:20:08.179Z,12.33
2019-02-16T04:22:23.863Z,11.90
2019-02-16T04:24:19.338Z,12.23
2019-02-16T04:26:24.024Z,12.30
2019-02-16T04:28:28.548Z,12.77
2019-02-16T04:30:33.425Z,12.93
2019-02-16T04:32:38.012Z,12.67
2019-02-16T04:34:42.606Z,11.80
2019-02-16T04:36:47.472Z,12.47
2019-02-16T04:38:52.033Z,11.97
2019-02-16T04:41:00.936Z,11.93
2019-02-16T04:43:05.929Z,11.13
2019-02-16T04:45:12.534Z,10.17
2019-02-16T04:47:20.675Z,10.27
2019-02-16T04:49:25.530Z,9.90
2019-02-16T04:51:30.080Z,9.07
2019-02-16T04:53:35.910Z,9.77
2019-02-16T04:55:40.586Z,9.93
2019-02-16T04:57:45.115Z,11.00
2019-02-16T04:59:49.799Z,10.97
2019-02-16T05:01:54.674Z,11.17
2019-02-16T05:03:59.259Z,10.70
2019-02-16T05:06:03.812Z,11.43
2019-02-16T05:08:08.435Z,10.17
2019-02-16T05:10:16.002Z,10.80
2019-02-16T05:12:20.563Z,9.87
2019-02-16T05:14:25.111Z,9.60
2019-02-16T05:16:30.062Z,9.43
2019-02-16T05:18:34.610Z,10.40
2019-02-16T05:20:39.159Z,10.03
2019-02-16T05:22:46.870Z,11.00
2019-02-16T05:24:51.505Z,9.20
2019-02-16T05:26:56.072Z,10.00
2019-02-16T05:29:07.266Z,9.83
2019-02-16T05:31:11.893Z,10.27
2019-02-16T05:33:16.436Z,10.20
2019-02-16T05:35:20.984Z,10.20
2019-02-16T05:37:25.617Z,9.57
2019-02-16T05:39:30.182Z,8.83
2019-02-16T05:41:34.729Z,8.77
2019-02-16T05:43:40.692Z,9.03
2019-02-16T05:45:45.323Z,9.23
2019-02-16T05:47:49.867Z,9.20
2019-02-16T05:49:54.506Z,8.63
2019-02-16T05:51:59.036Z,9.50
2019-02-16T05:54:03.559Z,7.77
2019-02-16T05:56:08.164Z,8.90
2019-02-16T05:58:12.683Z,9.10
2019-02-16T06:00:18.821Z,8.63
2019-02-16T06:02:23.719Z,9.00
2019-02-16T06:04:28.334Z,9.60
2019-02-16T06:06:37.752Z,9.40
2019-02-16T06:08:46.650Z,8.87
2019-02-16T06:10:51.208Z,9.73
2019-02-16T06:12:55.776Z,10.50
2019-02-16T06:15:02.705Z,9.43
2019-02-16T06:17:07.368Z,9.53
2019-02-16T06:19:14.950Z,8.63
2019-02-16T06:21:19.844Z,10.23
2019-02-16T06:23:24.468Z,9.63
2019-02-16T06:25:29.041Z,10.10
2019-02-16T06:27:34.895Z,8.43
2019-02-16T06:29:39.459Z,9.40
2019-02-16T06:31:44.038Z,8.83
2019-02-16T06:33:48.922Z,9.10
2019-02-16T06:36:00.589Z,11.00
2019-02-16T06:38:05.290Z,10.83
2019-02-16T06:40:12.998Z,10.63
2019-02-16T06:42:19.483Z,11.10
2019-02-16T06:44:24.000Z,11.10
2019-02-16T06:46:29.917Z,9.87
2019-02-16T06:48:34.433Z,10.27
2019-02-16T06:50:38.945Z,9.10
2019-02-16T06:52:46.803Z,9.60
2019-02-16T06:54:52.428Z,9.50
2019-02-16T06:57:25.521Z,9.50
2019-02-16T06:59:41.292Z,10.47
2019-02-16T07:01:48.393Z,10.17
2019-02-16T07:03:52.953Z,11.30
2019-02-16T07:05:58.880Z,11.50
2019-02-16T07:08:03.394Z,11.10
2019-02-16T07:10:10.928Z,11.07
2019-02-16T07:12:18.120Z,9.67
2019-02-16T07:14:22.630Z,10.37
2019-02-16T07:16:46.073Z,11.80
2019-02-16T07:18:56.336Z,10.87
2019-02-16T07:21:00.925Z,11.43
2019-02-16T07:23:07.034Z,10.87
2019-02-16T07:25:11.914Z,10.63
2019-02-16T07:27:16.447Z,10.73
2019-02-16T07:29:21.012Z,10.87
2019-02-16T07:31:26.008Z,12.00
2019-02-16T07:33:32.962Z,10.80
2019-02-16T07:35:37.572Z,11.60
2019-02-16T07:37:42.511Z,11.73
2019-02-16T07:39:47.178Z,10.93
2019-02-16T07:41:51.797Z,11.00
2019-02-16T07:44:16.872Z,11.03
2019-02-16T07:46:30.429Z,10.43
2019-02-16T07:48:42.729Z,10.87
2019-02-16T07:51:06.486Z,10.63
2019-02-16T07:53:20.625Z,10.23
2019-02-16T07:56:00.827Z,11.23
2019-02-16T07:58:19.200Z,10.63
2019-02-16T08:00:45.336Z,10.27
2019-02-16T08:03:29.507Z,11.23
2019-02-16T08:05:51.325Z,11.53
2019-02-16T08:08:04.507Z,12.17
2019-02-16T08:10:30.648Z,11.07
2019-02-16T08:12:42.943Z,11.30
2019-02-16T08:15:03.828Z,12.17
2019-02-16T08:17:24.108Z,12.37
2019-02-16T08:19:50.900Z,14.03
2019-02-16T08:22:20.343Z,13.03
2019-02-16T08:24:51.741Z,12.40
2019-02-16T08:27:13.293Z,14.30
2019-02-16T08:29:46.321Z,13.57
2019-02-16T08:32:11.707Z,18.17
2019-02-16T08:34:28.277Z,17.70
2019-02-16T08:36:51.731Z,15.83
2019-02-16T08:39:20.013Z,18.97
2019-02-16T08:41:42.693Z,17.67
2019-02-16T08:44:17.902Z,15.53
2019-02-16T08:46:32.663Z,16.67
2019-02-16T08:49:11.237Z,13.93
2019-02-16T08:51:22.580Z,13.33
2019-02-16T08:53:38.780Z,13.97
2019-02-16T08:55:58.232Z,14.97
2019-02-16T08:58:26.548Z,14.07
2019-02-16T09:00:56.437Z,14.77
2019-02-16T09:03:18.992Z,14.53
2019-02-16T09:05:33.502Z,13.90
2019-02-16T09:07:44.995Z,14.27
2019-02-16T09:10:14.580Z,14.17
2019-02-16T09:12:40.770Z,15.97
2019-02-16T09:15:21.973Z,16.07
2019-02-16T09:18:00.457Z,15.03
2019-02-16T09:20:26.294Z,15.73
2019-02-16T09:22:48.770Z,16.23
2019-02-16T09:25:22.049Z,16.77
2019-02-16T09:27:43.884Z,17.57
2019-02-16T09:30:02.242Z,18.03
2019-02-16T09:32:27.624Z,18.80
2019-02-16T09:34:54.096Z,18.80
2019-02-16T09:37:22.704Z,19.60
2019-02-16T09:39:36.135Z,18.27
2019-02-16T09:41:51.204Z,19.43
2019-02-16T09:44:21.801Z,19.70
2019-02-16T09:46:46.987Z,20.03
2019-02-16T09:49:22.652Z,21.70
2019-02-16T09:51:37.807Z,19.70
2019-02-16T09:54:18.479Z,22.17
2019-02-16T09:56:34.089Z,21.80
2019-02-16T09:59:08.575Z,22.67
2019-02-16T10:01:41.220Z,21.47
2019-02-16T10:04:04.724Z,22.10
2019-02-16T10:06:28.099Z,21.90
2019-02-16T10:08:52.444Z,22.53
2019-02-16T10:11:14.459Z,21.03
2019-02-16T10:13:50.049Z,21.63
2019-02-16T10:16:15.720Z,21.73
2019-02-16T10:18:36.134Z,21.63
2019-02-16T10:20:54.313Z,21.37
2019-02-16T10:23:16.274Z,21.50
2019-02-16T10:25:42.847Z,21.67
2019-02-16T10:28:10.476Z,22.00
2019-02-16T10:30:32.450Z,21.30
2019-02-16T10:32:59.089Z,21.33
2019-02-16T10:35:36.828Z,21.67
2019-02-16T10:37:58.690Z,23.20
2019-02-16T10:40:29.376Z,21.73
2019-02-16T10:42:45.914Z,22.07
2019-02-16T10:45:01.958Z,22.30
2019-02-16T10:47:13.369Z,23.03
2019-02-16T10:49:49.724Z,21.07
2019-02-16T10:52:21.510Z,22.30
2019-02-16T10:54:53.930Z,22.20
2019-02-16T10:57:41.605Z,22.27
2019-02-16T11:00:22.420Z,21.73
2019-02-16T11:02:42.578Z,23.10
2019-02-16T11:05:06.699Z,22.17
2019-02-16T11:07:45.485Z,22.20
2019-02-16T11:10:00.748Z,23.00
2019-02-16T11:12:36.700Z,22.53
2019-02-16T11:14:59.230Z,22.37
2019-02-16T11:17:24.891Z,23.00
2019-02-16T11:20:01.135Z,23.03
2019-02-16T11:22:31.462Z,23.37
2019-02-16T11:25:07.183Z,23.60
2019-02-16T11:27:29.710Z,22.17
2019-02-16T11:29:57.075Z,23.70
2019-02-16T11:32:24.630Z,23.80
2019-02-16T11:34:41.458Z,23.63
2019-02-16T11:37:14.854Z,23.17
2019-02-16T11:39:43.787Z,24.40
2019-02-16T11:42:03.127Z,24.40
2019-02-16T11:44:22.664Z,24.27
2019-02-16T11:46:58.813Z,23.80
2019-02-16T11:49:22.951Z,22.97
2019-02-16T11:51:52.019Z,23.87
2019-02-16T11:54:14.296Z,24.20
2019-02-16T11:56:47.084Z,23.27
2019-02-16T11:59:21.822Z,25.13
2019-02-16T12:01:58.232Z,24.37
2019-02-16T12:04:25.905Z,24.63
2019-02-16T12:06:41.196Z,23.17
2019-02-16T12:08:59.060Z,24.40
2019-02-16T12:11:29.319Z,24.07
2019-02-16T12:13:51.146Z,24.40
2019-02-16T12:16:14.307Z,24.47
2019-02-16T12:18:47.952Z,23.67
2019-02-16T12:21:11.873Z,25.07
2019-02-16T12:23:48.387Z,24.53
2019-02-16T12:26:11.796Z,25.30
2019-02-16T12:28:35.708Z,24.87
2019-02-16T12:30:57.920Z,24.67
2019-02-16T12:33:25.063Z,25.90
2019-02-16T12:35:48.676Z,24.13
2019-02-16T12:38:06.231Z,25.53
2019-02-16T12:40:20.782Z,25.27
2019-02-16T12:42:53.401Z,25.20
2019-02-16T12:45:22.747Z,24.57
2019-02-16T12:47:57.306Z,24.83
2019-02-16T12:50:11.361Z,25.13
2019-02-16T12:52:36.810Z,24.70
2019-02-16T12:55:14.618Z,24.17
2019-02-16T12:57:46.180Z,23.00
2019-02-16T13:00:29.663Z,25.50
2019-02-16T13:02:55.435Z,23.97
2019-02-16T13:05:29.417Z,24.57
2019-02-16T13:07:54.293Z,24.90
2019-02-16T13:10:15.762Z,25.67
2019-02-16T13:12:55.720Z,25.20
2019-02-16T13:15:21.838Z,25.43
2019-02-16T13:17:38.740Z,24.00
2019-02-16T13:19:56.137Z,23.60
2019-02-16T13:22:19.490Z,24.30
2019-02-16T13:24:47.856Z,23.83
2019-02-16T13:27:08.405Z,25.10
2019-02-16T13:29:32.222Z,23.53
2019-02-16T13:32:00.882Z,23.20
2019-02-16T13:34:40.730Z,24.43
2019-02-16T13:36:55.244Z,23.57
2019-02-16T13:39:23.713Z,23.00
2019-02-16T13:41:44.288Z,23.27
2019-02-16T13:43:58.050Z,22.90
2019-02-16T13:46:34.292Z,23.57
2019-02-16T13:48:47.498Z,23.00
2019-02-16T13:51:13.248Z,23.93
2019-02-16T13:53:40.785Z,23.93
2019-02-16T13:56:12.813Z,22.83
2019-02-16T13:58:30.817Z,23.03
2019-02-16T14:00:57.478Z,23.53
2019-02-16T14:03:16.105Z,23.93
2019-02-16T14:05:58.354Z,23.50
2019-02-16T14:08:31.281Z,23.67
2019-02-16T14:10:46.737Z,24.70
2019-02-16T14:13:18.872Z,23.17
2019-02-16T14:15:48.816Z,22.67
2019-02-16T14:17:55.511Z,22.87
2019-02-16T14:20:01.125Z,21.87
2019-02-16T14:22:20.612Z,24.63
2019-02-16T14:24:43.061Z,23.17
2019-02-16T14:26:53.788Z,23.40
2019-02-16T14:28:59.832Z,22.20
2019-02-16T14:31:06.004Z,23.67
2019-02-16T14:33:13.671Z,22.03
2019-02-16T14:35:21.625Z,24.20
2019-02-16T14:37:54.121Z,22.63
2019-02-16T14:40:04.158Z,22.97
2019-02-16T14:42:18.070Z,30.70
2019-02-16T14:44:31.844Z,26.10
2019-02-16T14:46:42.045Z,22.20
2019-02-16T14:48:49.958Z,24.70
2019-02-16T14:50:59.263Z,23.40
2019-02-16T14:53:07.913Z,24.37
2019-02-16T14:55:15.301Z,25.17
2019-02-16T14:57:20.412Z,24.03
2019-02-16T14:59:26.571Z,23.93
2019-02-16T15:01:38.161Z,22.93
2019-02-16T15:03:44.497Z,23.77
2019-02-16T15:05:52.177Z,24.93
2019-02-16T15:07:58.832Z,22.10
2019-02-16T15:10:04.620Z,23.87
2019-02-16T15:12:13.130Z,24.70
2019-02-16T15:14:21.316Z,23.40
2019-02-16T15:16:28.142Z,23.83
2019-02-16T15:18:37.627Z,25.07
2019-02-16T15:20:43.127Z,22.47
2019-02-16T15:22:49.221Z,24.03
2019-02-16T15:24:54.149Z,24.57
2019-02-16T15:27:02.160Z,23.87
2019-02-16T15:29:07.860Z,24.37
2019-02-16T15:31:13.667Z,24.33
2019-02-16T15:33:20.306Z,23.97
2019-02-16T15:35:29.667Z,23.83
2019-02-16T15:37:35.835Z,23.03
2019-02-16T15:39:45.080Z,23.03
2019-02-16T15:41:50.986Z,22.60
2019-02-16T15:43:56.736Z,23.73
2019-02-16T15:46:09.161Z,23.77
2019-02-16T15:48:14.931Z,22.83
2019-02-16T15:50:21.376Z,22.37
2019-02-16T15:52:26.523Z,23.90
2019-02-16T15:54:34.859Z,22.83
2019-02-16T15:56:43.893Z,24.97
2019-02-16T15:58:52.461Z,24.13
2019-02-16T16:01:07.867Z,24.43
2019-02-16T16:03:14.525Z,23.90
2019-02-16T16:05:24.393Z,24.33
2019-02-16T16:07:35.293Z,24.13
2019-02-16T16:09:59.664Z,24.80
2019-02-16T16:12:16.869Z,24.47
2019-02-16T16:14:34.865Z,24.27
2019-02-16T16:17:06.437Z,24.63
2019-02-16T16:19:25.884Z,23.63
2019-02-16T16:21:50.197Z,25.60
2019-02-16T16:24:21.749Z,24.40
2019-02-16T16:26:52.189Z,24.97
2019-02-16T16:29:23.881Z,25.70
2019-02-16T16:31:56.456Z,26.60
2019-02-16T16:34:20.077Z,24.83
2019-02-16T16:37:05.858Z,24.77
2019-02-16T16:39:25.735Z,25.20
2019-02-16T16:41:46.213Z,26.67
2019-02-16T16:44:25.371Z,27.27
2019-02-16T16:46:49.545Z,33.33
2019-02-16T16:49:12.802Z,30.37
2019-02-16T16:51:39.166Z,28.83
2019-02-16T16:54:01.964Z,29.20
2019-02-16T16:56:30.158Z,27.37
2019-02-16T16:58:59.877Z,28.07
2019-02-16T17:01:23.955Z,31.67
2019-02-16T17:03:46.456Z,29.30
2019-02-16T17:06:21.215Z,32.23
2019-02-16T17:08:49.538Z,30.90
2019-02-16T17:11:28.450Z,32.30
2019-02-16T17:14:11.431Z,30.13
2019-02-16T17:16:35.580Z,30.70
2019-02-16T17:19:19.193Z,29.97
2019-02-16T17:21:33.874Z,28.07
2019-02-16T17:23:56.112Z,28.13
2019-02-16T17:26:20.333Z,27.70
2019-02-16T17:28:49.759Z,27.47
2019-02-16T17:31:10.263Z,29.07
2019-02-16T17:33:37.359Z,26.67
2019-02-16T17:36:00.884Z,29.43
2019-02-16T17:38:49.888Z,26.90
2019-02-16T17:41:29.432Z,28.00
2019-02-16T17:43:55.567Z,28.53
2019-02-16T17:46:18.691Z,27.30
2019-02-16T17:48:44.541Z,27.90
2019-02-16T17:51:17.934Z,30.17
2019-02-16T17:53:48.812Z,27.10
2019-02-16T17:56:04.268Z,30.23
2019-02-16T17:58:30.369Z,29.90
2019-02-16T18:00:53.299Z,28.57
2019-02-16T18:03:33.500Z,28.30
2019-02-16T18:06:16.916Z,28.20
2019-02-16T18:08:49.867Z,28.03
2019-02-16T18:11:20.392Z,27.43
2019-02-16T18:13:56.789Z,26.60
2019-02-16T18:16:24.169Z,26.57
2019-02-16T18:18:42.654Z,25.50
2019-02-16T18:21:08.265Z,25.70
2019-02-16T18:23:40.667Z,24.97
2019-02-16T18:26:13.849Z,25.87
2019-02-16T18:28:43.602Z,25.60
2019-02-16T18:31:11.692Z,24.00
2019-02-16T18:33:38.126Z,24.97
2019-02-16T18:36:02.338Z,26.07
2019-02-16T18:38:24.713Z,25.73
2019-02-16T18:41:08.514Z,24.17
2019-02-16T18:43:29.311Z,24.87
2019-02-16T18:45:56.113Z,24.30
2019-02-16T18:48:19.125Z,24.27
2019-02-16T18:50:46.503Z,25.13
2019-02-16T18:53:23.007Z,25.13
2019-02-16T18:55:47.093Z,24.23
2019-02-16T18:58:01.884Z,25.37
2019-02-16T19:00:30.499Z,23.40
2019-02-16T19:02:45.779Z,24.63
2019-02-16T19:04:57.366Z,23.37
2019-02-16T19:07:11.091Z,24.07
2019-02-16T19:09:51.856Z,23.87
2019-02-16T19:12:15.855Z,23.70
2019-02-16T19:14:37.296Z,23.70
2019-02-16T19:17:27.138Z,23.20
2019-02-16T19:19:55.148Z,24.40
2019-02-16T19:22:15.210Z,25.20
2019-02-16T19:24:57.207Z,24.17
2019-02-16T19:27:21.049Z,24.23
2019-02-16T19:29:45.724Z,26.60
2019-02-16T19:32:25.243Z,25.30
2019-02-16T19:35:05.202Z,24.43
2019-02-16T19:37:31.756Z,24.13
2019-02-16T19:39:59.995Z,25.80
2019-02-16T19:42:16.456Z,24.67
2019-02-16T19:44:46.993Z,28.83
2019-02-16T19:47:18.560Z,26.70
2019-02-16T19:49:48.281Z,25.73
2019-02-16T19:52:27.340Z,29.20
2019-02-16T19:55:05.093Z,23.80
2019-02-16T19:57:28.128Z,25.70
2019-02-16T20:00:07.782Z,23.90
2019-02-16T20:03:02.185Z,22.67
2019-02-16T20:05:30.322Z,23.33
2019-02-16T20:07:53.524Z,24.03
2019-02-16T20:10:30.006Z,23.63
2019-02-16T20:13:08.717Z,24.10
2019-02-16T20:15:38.414Z,24.73
2019-02-16T20:18:03.005Z,25.20
2019-02-16T20:20:34.883Z,24.10
2019-02-16T20:23:14.519Z,24.90
2019-02-16T20:25:40.129Z,24.63
2019-02-16T20:28:12.188Z,25.00
2019-02-16T20:30:39.770Z,24.50
2019-02-16T20:32:55.312Z,25.50
2019-02-16T20:35:19.120Z,26.13
2019-02-16T20:37:57.566Z,26.40
2019-02-16T20:40:20.465Z,27.47
2019-02-16T20:42:50.781Z,26.50
2019-02-16T20:45:14.780Z,25.07
2019-02-16T20:47:56.722Z,25.70
2019-02-16T20:50:23.869Z,25.57
2019-02-16T20:52:58.429Z,25.80
2019-02-16T20:55:38.328Z,25.73
2019-02-16T20:58:00.413Z,25.00
2019-02-16T21:00:25.723Z,23.90
2019-02-16T21:02:46.879Z,25.97
2019-02-16T21:05:10.390Z,25.97
2019-02-16T21:07:37.190Z,25.43
2019-02-16T21:10:03.797Z,25.77
2019-02-16T21:12:29.104Z,26.93
2019-02-16T21:15:09.810Z,26.87
2019-02-16T21:17:53.502Z,27.87
2019-02-16T21:20:30.128Z,29.20
2019-02-16T21:23:00.172Z,29.63
2019-02-16T21:25:18.684Z,29.10
2019-02-16T21:27:57.718Z,30.40
2019-02-16T21:30:15.698Z,32.23
2019-02-16T21:32:34.297Z,30.53
2019-02-16T21:34:50.175Z,31.23
2019-02-16T21:37:11.413Z,31.40
2019-02-16T21:39:35.097Z,31.37
2019-02-16T21:42:09.671Z,29.63
2019-02-16T21:44:38.090Z,30.77
2019-02-16T21:47:21.346Z,30.87
2019-02-16T21:49:48.086Z,30.00
2019-02-16T21:52:18.900Z,29.30
2019-02-16T21:54:53.918Z,31.07
2019-02-16T21:57:24.360Z,29.67
2019-02-16T21:59:51.344Z,31.43
2019-02-16T22:02:24.422Z,29.70
2019-02-16T22:04:52.448Z,31.03
2019-02-16T22:07:28.329Z,31.37
2019-02-16T22:10:06.613Z,29.87
2019-02-16T22:12:30.455Z,31.60
2019-02-16T22:14:48.152Z,32.77
2019-02-16T22:16:58.031Z,31.87
2019-02-16T22:19:09.116Z,32.47
2019-02-16T22:21:22.226Z,32.40
2019-02-16T22:23:36.853Z,33.77
2019-02-16T22:26:08.146Z,33.63
2019-02-16T22:28:28.280Z,32.77
2019-02-16T22:30:28.614Z,33.10
2019-02-16T22:32:38.248Z,34.97
2019-02-16T22:34:49.151Z,35.87
2019-02-16T22:37:04.192Z,35.70
2019-02-16T22:39:12.480Z,36.20
2019-02-16T22:41:19.379Z,36.80
2019-02-16T22:43:27.107Z,34.53
2019-02-16T22:45:42.903Z,38.40
2019-02-16T22:47:51.281Z,33.43
2019-02-16T22:50:03.620Z,35.07
2019-02-16T22:52:08.502Z,36.37
2019-02-16T22:54:22.119Z,34.50
2019-02-16T22:56:26.677Z,35.93
2019-02-16T22:58:31.380Z,35.67
2019-02-16T23:01:00.488Z,36.47
2019-02-16T23:03:07.892Z,36.00
2019-02-16T23:05:14.336Z,35.97
2019-02-16T23:07:21.692Z,36.37
2019-02-16T23:09:28.100Z,34.20
2019-02-16T23:11:34.704Z,35.87
2019-02-16T23:13:41.941Z,33.93
2019-02-16T23:15:49.520Z,33.43
2019-02-16T23:17:54.160Z,33.37
2019-02-16T23:20:06.803Z,31.47
2019-02-16T23:22:17.976Z,31.73
2019-02-16T23:24:26.082Z,30.10
2019-02-16T23:26:33.048Z,30.70
2019-02-16T23:28:40.136Z,31.67
2019-02-16T23:30:51.066Z,30.93
2019-02-16T23:32:53.261Z,31.53
2019-02-16T23:34:58.128Z,31.07
2019-02-16T23:37:02.678Z,31.80
2019-02-16T23:39:08.418Z,28.00
2019-02-16T23:41:12.977Z,26.97
2019-02-16T23:43:17.521Z,26.30
2019-02-16T23:45:24.784Z,32.23
2019-02-16T23:47:29.341Z,32.17
2019-02-16T23:49:36.644Z,32.23
2019-02-16T23:51:44.467Z,30.30
2019-02-16T23:53:50.799Z,28.13
2019-02-16T23:55:55.393Z,27.23
2019-02-16T23:58:00.316Z,27.13
